Bay View, Ohio
Current Conditions -  °F | °C
As of 8:33 PM on Saturday 25 Oct 2014 (Local Time) from KPCW Reporting Station
Clear Clear  
Wind Chill: 63°   Ceiling: Unl
Heat Index: 63°   Visibility: 10mi
Dew Point: 37°   Wind: 13mph
Humidity: 39%   Direction: 280°W
Pressure: 29.81"   Gusts: NA
Location:  41.4028°N, 82.7181°W
Report Text: KPCW 260033Z AUTO 28011KT 10SM CLR 17/03 A2981 RMK AO2 $
Loading
Personal Weather Stations






























Interactive Weather Map
Tropical Storm Tracking
New forecast layout! Learn more

10-Day Weather Forecast

Advertisements
Track Severe Weather on mobile